createdAt,value
2017-10-02T00:00:17.344Z,100647.03
2017-10-02T00:02:45.259Z,100653.10
2017-10-02T00:05:12.401Z,100645.31
2017-10-02T00:07:39.541Z,100637.05
2017-10-02T00:10:06.700Z,100634.91
2017-10-02T00:12:33.843Z,100630.09
2017-10-02T00:15:00.998Z,100639.66
2017-10-02T00:17:28.141Z,100636.21
2017-10-02T00:19:55.281Z,100624.44
2017-10-02T00:22:22.421Z,100628.36
2017-10-02T00:24:49.565Z,100621.41
2017-10-02T00:27:17.387Z,100622.30
2017-10-02T00:29:44.533Z,100617.06
2017-10-02T00:32:11.687Z,100623.19
2017-10-02T00:34:38.843Z,100628.83
2017-10-02T00:37:05.999Z,100624.49
2017-10-02T00:39:33.156Z,100633.66
2017-10-02T00:42:00.311Z,100628.89
2017-10-02T00:44:27.463Z,100637.16
2017-10-02T00:46:54.606Z,100639.36
2017-10-02T00:49:21.747Z,100647.15
2017-10-02T00:51:48.885Z,100640.61
2017-10-02T00:54:16.029Z,100638.10
2017-10-02T00:56:43.165Z,100640.25
2017-10-02T00:59:10.304Z,100631.14
2017-10-02T01:01:38.453Z,100630.70
2017-10-02T01:04:05.615Z,100626.93
2017-10-02T01:06:32.763Z,100620.36
2017-10-02T01:08:59.929Z,100612.11
2017-10-02T01:11:27.092Z,100612.00
2017-10-02T01:13:54.237Z,100612.23
2017-10-02T01:16:21.396Z,100600.14
2017-10-02T01:18:48.537Z,100591.48
2017-10-02T01:21:15.677Z,100590.17
2017-10-02T01:23:42.822Z,100589.96
2017-10-02T01:26:09.966Z,100579.36
2017-10-02T01:28:37.110Z,100578.17
2017-10-02T01:31:04.250Z,100577.48
2017-10-02T01:33:31.398Z,100573.20
2017-10-02T01:35:58.555Z,100579.33
2017-10-02T01:38:25.693Z,100569.39
2017-10-02T01:40:52.856Z,100565.05
2017-10-02T01:43:19.997Z,100555.89
2017-10-02T01:45:47.142Z,100559.88
2017-10-02T01:48:14.300Z,100549.83
2017-10-02T01:50:41.462Z,100553.33
2017-10-02T01:53:08.620Z,100542.92
2017-10-02T01:55:35.778Z,100549.47
2017-10-02T01:58:02.935Z,100552.50
2017-10-02T02:00:30.092Z,100556.00
2017-10-02T02:02:57.229Z,100539.06
2017-10-02T02:05:24.388Z,100533.41
2017-10-02T02:07:51.544Z,100530.80
2017-10-02T02:10:18.712Z,100525.56
2017-10-02T02:12:45.852Z,100525.56
2017-10-02T02:15:13.028Z,100525.20
2017-10-02T02:17:40.178Z,100517.77
2017-10-02T02:20:07.339Z,100507.78
2017-10-02T02:22:35.422Z,100502.16
2017-10-02T02:25:02.593Z,100499.94
2017-10-02T02:27:29.752Z,100496.94
2017-10-02T02:29:57.181Z,100491.70
2017-10-02T02:32:24.326Z,100489.09
2017-10-02T02:34:52.252Z,100485.22
2017-10-02T02:37:19.407Z,100477.84
2017-10-02T02:39:46.564Z,100477.80
2017-10-02T02:42:13.710Z,100469.58
2017-10-02T02:44:40.872Z,100461.68
2017-10-02T02:47:08.013Z,100451.69
2017-10-02T02:49:35.177Z,100437.72
2017-10-02T02:52:02.325Z,100448.66
2017-10-02T02:54:29.470Z,100432.55
2017-10-02T02:56:56.608Z,100437.84
2017-10-02T02:59:23.750Z,100448.66
2017-10-02T03:01:50.888Z,100447.41
2017-10-02T03:04:18.027Z,100435.22
2017-10-02T03:06:45.175Z,100440.87
2017-10-02T03:09:12.312Z,100450.08
2017-10-02T03:11:39.472Z,100451.81
2017-10-02T03:14:06.627Z,100463.58
2017-10-02T03:16:33.761Z,100461.44
2017-10-02T03:19:00.919Z,100464.05
2017-10-02T03:21:28.058Z,100468.81
2017-10-02T03:23:55.197Z,100480.22
2017-10-02T03:26:22.337Z,100465.84
2017-10-02T03:28:49.477Z,100459.30
2017-10-02T03:31:16.632Z,100457.04
2017-10-02T03:33:43.804Z,100449.67
2017-10-02T03:36:10.964Z,100438.67
2017-10-02T03:38:38.120Z,100445.98
2017-10-02T03:41:05.265Z,100442.75
2017-10-02T03:43:32.420Z,100441.33
2017-10-02T03:45:59.561Z,100441.14
2017-10-02T03:48:26.719Z,100441.50
2017-10-02T03:50:53.880Z,100448.14
2017-10-02T03:53:21.218Z,100442.78
2017-10-02T03:55:48.375Z,100447.91
2017-10-02T03:58:15.540Z,100443.09
2017-10-02T04:00:42.677Z,100433.93
2017-10-02T04:03:09.839Z,100431.79
2017-10-02T04:05:37.013Z,100432.63
2017-10-02T04:08:04.176Z,100432.68
2017-10-02T04:10:31.352Z,100431.38
2017-10-02T04:12:58.507Z,100427.03
2017-10-02T04:15:25.648Z,100426.55
2017-10-02T04:17:52.821Z,100427.39
2017-10-02T04:20:19.961Z,100421.33
2017-10-02T04:22:47.106Z,100419.95
2017-10-02T04:25:14.246Z,100419.95
2017-10-02T04:27:41.384Z,100429.05
2017-10-02T04:30:08.529Z,100422.16
2017-10-02T04:32:35.687Z,100424.30
2017-10-02T04:35:02.861Z,100419.55
2017-10-02T04:37:30.017Z,100414.31
2017-10-02T04:39:57.176Z,100412.94
2017-10-02T04:42:24.336Z,100409.85
2017-10-02T04:44:51.476Z,100403.37
2017-10-02T04:47:18.826Z,100400.34
2017-10-02T04:49:45.965Z,100409.43
2017-10-02T04:52:13.128Z,100397.66
2017-10-02T04:54:40.269Z,100405.15
2017-10-02T04:57:07.408Z,100408.95
2017-10-02T04:59:35.316Z,100413.77
2017-10-02T05:02:02.471Z,100406.76
2017-10-02T05:04:29.627Z,100389.39
2017-10-02T05:06:56.766Z,100398.49
2017-10-02T05:09:23.933Z,100401.11
2017-10-02T05:11:51.087Z,100391.48
2017-10-02T05:14:18.269Z,100376.31
2017-10-02T05:16:45.418Z,100379.76
2017-10-02T05:19:12.561Z,100387.61
2017-10-02T05:21:39.705Z,100381.07
2017-10-02T05:24:06.865Z,100382.38
2017-10-02T05:26:34.035Z,100377.09
2017-10-02T05:29:01.173Z,100380.89
2017-10-02T05:31:28.323Z,100398.49
2017-10-02T05:33:55.465Z,100398.84
2017-10-02T05:36:22.619Z,100405.36
2017-10-02T05:38:49.758Z,100393.13
2017-10-02T05:41:16.912Z,100394.26
2017-10-02T05:43:44.048Z,100393.01
2017-10-02T05:46:11.207Z,100394.44
2017-10-02T05:48:38.344Z,100393.77
2017-10-02T05:51:05.509Z,100399.03
2017-10-02T05:53:32.657Z,100399.98
2017-10-02T05:55:59.815Z,100404.28
2017-10-02T05:58:26.957Z,100397.29
2017-10-02T06:00:54.115Z,100389.34
2017-10-02T06:03:21.257Z,100380.23
2017-10-02T06:05:48.411Z,100380.73
2017-10-02T06:08:15.553Z,100391.85
2017-10-02T06:10:42.702Z,100396.45
2017-10-02T06:13:09.846Z,100400.08
2017-10-02T06:15:37.007Z,100394.07
2017-10-02T06:18:04.164Z,100401.08
2017-10-02T06:20:31.319Z,100393.68
2017-10-02T06:22:58.475Z,100404.43
2017-10-02T06:25:25.625Z,100399.53
2017-10-02T06:27:52.775Z,100395.84
2017-10-02T06:30:19.932Z,100395.06
2017-10-02T06:32:47.073Z,100383.77
2017-10-02T06:35:14.225Z,100389.54
2017-10-02T06:37:41.380Z,100384.84
2017-10-02T06:40:08.534Z,100396.61
2017-10-02T06:42:35.690Z,100395.78
2017-10-02T06:45:02.833Z,100396.35
2017-10-02T06:47:29.987Z,100392.42
2017-10-02T06:49:57.148Z,100389.81
2017-10-02T06:52:24.295Z,100394.20
2017-10-02T06:54:51.533Z,100396.83
2017-10-02T06:57:18.698Z,100395.58
2017-10-02T06:59:45.846Z,100399.92
2017-10-02T07:02:13.003Z,100403.84
2017-10-02T07:04:40.146Z,100394.33
2017-10-02T07:07:07.303Z,100395.64
2017-10-02T07:09:34.462Z,100399.56
2017-10-02T07:12:01.636Z,100397.36
2017-10-02T07:14:28.800Z,100401.29
2017-10-02T07:16:55.949Z,100402.59
2017-10-02T07:19:23.093Z,100403.97
2017-10-02T07:21:50.259Z,100402.18
2017-10-02T07:24:17.450Z,100408.72
2017-10-02T07:26:44.640Z,100395.28
2017-10-02T07:29:11.777Z,100392.19
2017-10-02T07:31:38.922Z,100388.27
2017-10-02T07:34:06.087Z,100390.47
2017-10-02T07:36:33.239Z,100390.52
2017-10-02T07:39:00.391Z,100386.13
2017-10-02T07:41:27.522Z,100389.16
2017-10-02T07:43:54.674Z,100389.22
2017-10-02T07:46:21.831Z,100388.68
2017-10-02T07:48:48.987Z,100391.36
2017-10-02T07:51:16.134Z,100394.03
2017-10-02T07:53:43.290Z,100396.65
2017-10-02T07:56:10.432Z,100390.05
2017-10-02T07:58:37.591Z,100393.55
2017-10-02T08:01:04.908Z,100388.38
2017-10-02T08:03:32.063Z,100390.52
2017-10-02T08:05:59.213Z,100389.69
2017-10-02T08:08:26.354Z,100395.34
2017-10-02T08:10:53.521Z,100377.50
2017-10-02T08:13:20.675Z,100378.39
2017-10-02T08:15:47.831Z,100387.08
2017-10-02T08:18:14.978Z,100390.58
2017-10-02T08:20:42.121Z,100391.41
2017-10-02T08:23:10.033Z,100396.65
2017-10-02T08:25:37.178Z,100387.13
2017-10-02T08:28:04.333Z,100388.03
2017-10-02T08:30:31.491Z,100394.98
2017-10-02T08:32:58.647Z,100402.36
2017-10-02T08:35:25.832Z,100400.22
2017-10-02T08:37:52.982Z,100395.81
2017-10-02T08:40:20.124Z,100394.51
2017-10-02T08:42:47.265Z,100399.38
2017-10-02T08:45:14.510Z,100407.65
2017-10-02T08:47:42.421Z,100405.45
2017-10-02T08:50:09.566Z,100405.87
2017-10-02T08:52:36.874Z,100397.59
2017-10-02T08:55:04.780Z,100391.06
2017-10-02T08:57:32.103Z,100380.59
2017-10-02T09:00:00.035Z,100380.17
2017-10-02T09:02:27.196Z,100368.81
2017-10-02T09:04:54.342Z,100385.83
2017-10-02T09:07:21.485Z,100393.67
2017-10-02T09:09:48.629Z,100396.23
2017-10-02T09:12:15.789Z,100391.89
2017-10-02T09:14:42.935Z,100398.91
2017-10-02T09:17:10.093Z,100394.56
2017-10-02T09:19:37.234Z,100400.69
2017-10-02T09:22:04.403Z,100410.69
2017-10-02T09:24:31.569Z,100409.44
2017-10-02T09:26:58.717Z,100412.88
2017-10-02T09:29:25.861Z,100414.13
2017-10-02T09:31:53.024Z,100415.02
2017-10-02T09:34:20.217Z,100416.75
2017-10-02T09:36:47.366Z,100421.86
2017-10-02T09:39:14.598Z,100416.69
2017-10-02T09:41:41.763Z,100421.50
2017-10-02T09:44:08.911Z,100414.13
2017-10-02T09:46:36.081Z,100413.30
2017-10-02T09:49:03.231Z,100420.73
2017-10-02T09:51:30.391Z,100400.28
2017-10-02T09:53:57.533Z,100400.75
2017-10-02T09:56:24.932Z,100388.14
2017-10-02T09:58:54.619Z,100371.14
2017-10-02T10:01:21.765Z,100362.39
2017-10-02T10:03:48.924Z,100358.89
2017-10-02T10:06:16.089Z,100340.19
2017-10-02T10:08:43.246Z,100334.92
2017-10-02T10:11:10.408Z,100334.03
2017-10-02T10:13:37.555Z,100340.87
2017-10-02T10:16:04.703Z,100330.24
2017-10-02T10:18:31.845Z,100334.29
2017-10-02T10:20:59.008Z,100330.69
2017-10-02T10:23:26.168Z,100339.48
2017-10-02T10:25:53.313Z,100355.61
2017-10-02T10:28:20.466Z,100364.56
2017-10-02T10:30:47.633Z,100369.20
2017-10-02T10:33:14.778Z,100374.60
2017-10-02T10:35:41.944Z,100384.89
2017-10-02T10:38:09.099Z,100387.84
2017-10-02T10:40:36.237Z,100387.28
2017-10-02T10:43:03.380Z,100393.52
2017-10-02T10:45:30.543Z,100395.17
2017-10-02T10:47:57.685Z,100395.75
2017-10-02T10:50:24.832Z,100400.84
2017-10-02T10:52:51.995Z,100398.40
2017-10-02T10:55:19.300Z,100401.55
2017-10-02T10:57:46.451Z,100403.34
2017-10-02T11:00:13.639Z,100395.01
2017-10-02T11:02:40.800Z,100397.63
2017-10-02T11:05:07.956Z,100412.02
2017-10-02T11:07:35.106Z,100406.84
2017-10-02T11:10:02.277Z,100404.34
2017-10-02T11:12:29.417Z,100414.34
2017-10-02T11:14:56.773Z,100410.89
2017-10-02T11:17:23.929Z,100409.16
2017-10-02T11:19:51.072Z,100410.53
2017-10-02T11:22:18.209Z,100413.98
2017-10-02T11:24:45.378Z,100415.70
2017-10-02T11:27:12.537Z,100408.81
2017-10-02T11:29:39.716Z,100400.95
2017-10-02T11:32:06.857Z,100398.75
2017-10-02T11:34:34.780Z,100404.83
2017-10-02T11:37:01.935Z,100397.92
2017-10-02T11:39:29.084Z,100407.91
2017-10-02T11:41:56.234Z,100412.67
2017-10-02T11:44:23.378Z,100412.73
2017-10-02T11:46:50.748Z,100399.23
2017-10-02T11:49:17.915Z,100407.50
2017-10-02T11:51:45.074Z,100406.19
2017-10-02T11:54:12.237Z,100396.27
2017-10-02T11:56:39.405Z,100387.52
2017-10-02T11:59:06.545Z,100377.20
2017-10-02T12:01:33.711Z,100371.20
2017-10-02T12:04:00.872Z,100360.31
2017-10-02T12:06:28.036Z,100359.48
2017-10-02T12:08:55.191Z,100365.55
2017-10-02T12:11:22.338Z,100380.41
2017-10-02T12:13:49.525Z,100376.02
2017-10-02T12:16:16.688Z,100388.63
2017-10-02T12:18:43.842Z,100387.73
2017-10-02T12:21:11.009Z,100384.22
2017-10-02T12:23:39.223Z,100390.34
2017-10-02T12:26:06.385Z,100398.20
2017-10-02T12:28:34.307Z,100389.09
2017-10-02T12:31:01.454Z,100387.02
2017-10-02T12:33:28.610Z,100385.70
2017-10-02T12:35:55.758Z,100382.73
2017-10-02T12:38:23.225Z,100376.25
2017-10-02T12:40:50.412Z,100380.66
2017-10-02T12:43:17.554Z,100389.27
2017-10-02T12:45:44.708Z,100392.31
2017-10-02T12:48:11.853Z,100394.23
2017-10-02T12:50:39.011Z,100407.80
2017-10-02T12:53:06.173Z,100406.58
2017-10-02T12:55:34.077Z,100407.89
2017-10-02T12:58:01.218Z,100408.84
2017-10-02T13:00:28.362Z,100406.70
2017-10-02T13:02:55.518Z,100396.30
2017-10-02T13:05:22.663Z,100390.23
2017-10-02T13:07:49.805Z,100388.03
2017-10-02T13:10:16.976Z,100371.86
2017-10-02T13:12:44.135Z,100379.76
2017-10-02T13:15:11.273Z,100371.08
2017-10-02T13:17:38.420Z,100370.19
2017-10-02T13:20:05.567Z,100373.09
2017-10-02T13:22:32.719Z,100367.39
2017-10-02T13:24:59.862Z,100378.12
2017-10-02T13:27:27.020Z,100370.25
2017-10-02T13:29:54.163Z,100373.30
2017-10-02T13:32:21.333Z,100368.55
2017-10-02T13:34:48.496Z,100371.16
2017-10-02T13:37:15.656Z,100369.02
2017-10-02T13:39:42.801Z,100368.23
2017-10-02T13:42:09.956Z,100364.77
2017-10-02T13:44:37.127Z,100363.95
2017-10-02T13:47:04.308Z,100358.71
2017-10-02T13:49:31.580Z,100364.06
2017-10-02T13:51:58.726Z,100363.64
2017-10-02T13:54:25.879Z,100369.83
2017-10-02T13:56:53.023Z,100365.02
2017-10-02T13:59:20.177Z,100361.63
2017-10-02T14:01:47.359Z,100360.38
2017-10-02T14:04:14.541Z,100359.96
2017-10-02T14:06:41.710Z,100353.42
2017-10-02T14:09:09.118Z,100349.50
2017-10-02T14:11:36.691Z,100344.69
2017-10-02T14:14:03.858Z,100352.47
2017-10-02T14:16:31.002Z,100354.14
2017-10-02T14:18:58.156Z,100348.96
2017-10-02T14:21:25.312Z,100360.67
2017-10-02T14:23:52.551Z,100366.68
2017-10-02T14:26:19.725Z,100351.45
2017-10-02T14:28:47.648Z,100363.23
2017-10-02T14:31:14.804Z,100362.40
2017-10-02T14:33:41.936Z,100356.92
2017-10-02T14:36:09.069Z,100343.55
2017-10-02T14:38:36.220Z,100346.70
2017-10-02T14:41:03.375Z,100350.73
2017-10-02T14:43:30.529Z,100351.75
2017-10-02T14:45:57.671Z,100350.50
2017-10-02T14:48:24.813Z,100351.45
2017-10-02T14:50:51.972Z,100350.62
2017-10-02T14:53:19.128Z,100353.69
2017-10-02T14:55:46.285Z,100348.45
2017-10-02T14:58:13.453Z,100356.30
2017-10-02T15:00:40.608Z,100351.45
2017-10-02T15:03:07.924Z,100356.03
2017-10-02T15:05:35.066Z,100369.61
2017-10-02T15:08:02.206Z,100371.66
2017-10-02T15:10:29.355Z,100353.92
2017-10-02T15:12:56.513Z,100340.73
2017-10-02T15:15:23.649Z,100341.03
2017-10-02T15:17:51.567Z,100343.58
2017-10-02T15:20:18.713Z,100356.04
2017-10-02T15:22:45.884Z,100355.98
2017-10-02T15:25:13.038Z,100349.91
2017-10-02T15:27:40.178Z,100353.30
2017-10-02T15:30:07.632Z,100348.84
2017-10-02T15:32:34.788Z,100341.75
2017-10-02T15:35:01.926Z,100348.69
2017-10-02T15:37:29.065Z,100334.22
2017-10-02T15:39:57.011Z,100352.06
2017-10-02T15:42:24.152Z,100362.81
2017-10-02T15:44:51.304Z,100361.27
2017-10-02T15:47:18.463Z,100361.80
2017-10-02T15:49:45.607Z,100355.80
2017-10-02T15:52:12.765Z,100366.33
2017-10-02T15:54:39.911Z,100371.55
2017-10-02T15:57:07.079Z,100372.06
2017-10-02T15:59:34.224Z,100373.88
2017-10-02T16:02:01.361Z,100373.09
2017-10-02T16:04:28.525Z,100364.42
2017-10-02T16:06:55.687Z,100368.34
2017-10-02T16:09:22.838Z,100370.06
2017-10-02T16:11:50.027Z,100368.23
2017-10-02T16:14:17.177Z,100372.20
2017-10-02T16:16:44.341Z,100375.66
2017-10-02T16:19:11.500Z,100378.28
2017-10-02T16:21:38.642Z,100383.03
2017-10-02T16:24:06.010Z,100376.97
2017-10-02T16:26:33.153Z,100384.40
2017-10-02T16:29:01.060Z,100382.61
2017-10-02T16:31:28.224Z,100384.34
2017-10-02T16:33:55.385Z,100389.16
2017-10-02T16:36:22.530Z,100392.99
2017-10-02T16:38:49.674Z,100384.81
2017-10-02T16:41:16.832Z,100382.61
2017-10-02T16:43:43.991Z,100377.38
2017-10-02T16:46:11.134Z,100381.78
2017-10-02T16:48:38.278Z,100390.94
2017-10-02T16:51:05.412Z,100389.22
2017-10-02T16:53:32.567Z,100390.52
2017-10-02T16:55:59.704Z,100389.16
2017-10-02T16:58:26.836Z,100388.33
2017-10-02T17:00:53.993Z,100376.97
2017-10-02T17:03:21.163Z,100374.00
2017-10-02T17:05:48.311Z,100372.69
2017-10-02T17:08:15.464Z,100376.61
2017-10-02T17:10:42.618Z,100381.07
2017-10-02T17:13:09.785Z,100392.84
2017-10-02T17:15:36.940Z,100380.18
2017-10-02T17:18:04.120Z,100390.17
2017-10-02T17:20:31.292Z,100381.90
2017-10-02T17:22:58.430Z,100387.67
2017-10-02T17:25:27.537Z,100387.97
2017-10-02T17:27:54.704Z,100387.70
2017-10-02T17:30:21.848Z,100381.78
2017-10-02T17:32:48.999Z,100393.27
2017-10-02T17:35:16.137Z,100392.42
2017-10-02T17:37:43.272Z,100381.19
2017-10-02T17:40:10.431Z,100386.42
2017-10-02T17:42:37.582Z,100397.36
2017-10-02T17:45:04.809Z,100395.64
2017-10-02T17:47:32.143Z,100398.73
2017-10-02T17:49:59.286Z,100396.95
2017-10-02T17:52:27.415Z,100393.91
2017-10-02T17:54:54.808Z,100394.80
2017-10-02T17:57:22.308Z,100396.53
2017-10-02T17:59:50.384Z,100398.73
2017-10-02T18:02:17.528Z,100410.08
2017-10-02T18:04:45.714Z,100411.39
2017-10-02T18:07:12.905Z,100411.33
2017-10-02T18:09:40.222Z,100420.91
2017-10-02T18:12:07.358Z,100417.45
2017-10-02T18:14:35.432Z,100423.11
2017-10-02T18:17:02.777Z,100428.34
2017-10-02T18:19:30.084Z,100426.55
2017-10-02T18:21:57.412Z,100420.02
2017-10-02T18:24:24.975Z,100416.09
2017-10-02T18:26:52.222Z,100409.19
2017-10-02T18:29:19.578Z,100413.53
2017-10-02T18:31:47.342Z,100415.61
2017-10-02T18:34:14.557Z,100410.86
2017-10-02T18:36:41.809Z,100412.64
2017-10-02T18:39:09.086Z,100422.63
2017-10-02T18:41:36.557Z,100420.02
2017-10-02T18:44:03.991Z,100430.48
2017-10-02T18:46:32.186Z,100432.20
2017-10-02T18:48:59.545Z,100432.68
2017-10-02T18:51:27.624Z,100433.93
2017-10-02T18:53:55.872Z,100433.04
2017-10-02T18:56:24.537Z,100436.96
2017-10-02T18:58:52.445Z,100437.86
2017-10-02T19:01:19.971Z,100449.63
2017-10-02T19:03:47.140Z,100452.19
2017-10-02T19:06:14.485Z,100449.16
2017-10-02T19:08:42.425Z,100440.05
2017-10-02T19:11:09.576Z,100437.37
2017-10-02T19:13:36.871Z,100437.37
2017-10-02T19:16:04.427Z,100441.78
2017-10-02T19:18:31.885Z,100440.41
2017-10-02T19:20:59.533Z,100442.55
2017-10-02T19:23:27.619Z,100441.66
2017-10-02T19:25:55.072Z,100434.77
2017-10-02T19:28:23.467Z,100437.02
2017-10-02T19:30:51.334Z,100437.86
2017-10-02T19:33:18.728Z,100429.59
2017-10-02T19:35:47.087Z,100434.41
2017-10-02T19:38:14.526Z,100426.14
2017-10-02T19:40:41.998Z,100419.06
2017-10-02T19:43:09.833Z,100422.98
2017-10-02T19:45:37.268Z,100418.23
2017-10-02T19:48:04.468Z,100413.42
2017-10-02T19:50:31.833Z,100416.45
2017-10-02T19:52:59.524Z,100414.66
2017-10-02T19:55:27.659Z,100412.20
2017-10-02T19:57:54.815Z,100415.62
2017-10-02T20:00:22.355Z,100409.02
2017-10-02T20:02:50.197Z,100403.41
2017-10-02T20:05:17.765Z,100401.09
2017-10-02T20:07:45.697Z,100398.89
2017-10-02T20:10:12.946Z,100398.27
2017-10-02T20:12:40.317Z,100397.79
2017-10-02T20:15:07.614Z,100396.34
2017-10-02T20:17:35.095Z,100402.05
2017-10-02T20:20:02.239Z,100402.92
2017-10-02T20:22:29.412Z,100401.38
2017-10-02T20:24:58.682Z,100379.34
2017-10-02T20:27:26.192Z,100386.36
2017-10-02T20:29:53.388Z,100394.27
2017-10-02T20:32:21.644Z,100394.75
2017-10-02T20:34:49.623Z,100400.04
2017-10-02T20:37:17.263Z,100407.47
2017-10-02T20:39:45.918Z,100414.02
2017-10-02T20:42:14.957Z,100405.75
2017-10-02T20:44:42.191Z,100416.22
2017-10-02T20:47:09.780Z,100408.84
2017-10-02T20:49:36.977Z,100413.59
2017-10-02T20:52:04.682Z,100414.08
2017-10-02T20:54:31.858Z,100426.27
2017-10-02T20:56:59.293Z,100423.65
2017-10-02T20:59:26.447Z,100432.87
2017-10-02T21:01:53.813Z,100436.31
2017-10-02T21:04:21.059Z,100446.78
2017-10-02T21:06:48.199Z,100437.69
2017-10-02T21:09:15.330Z,100450.77
2017-10-02T21:11:43.263Z,100447.31
2017-10-02T21:14:10.422Z,100441.67
2017-10-02T21:16:37.590Z,100442.14
2017-10-02T21:19:04.747Z,100444.82
2017-10-02T21:21:33.039Z,100448.77
2017-10-02T21:24:00.231Z,100442.28
2017-10-02T21:26:27.374Z,100444.99
2017-10-02T21:28:54.544Z,100451.12
2017-10-02T21:31:21.693Z,100453.31
2017-10-02T21:33:48.860Z,100459.44
2017-10-02T21:36:16.002Z,100454.75
2017-10-02T21:38:43.163Z,100455.28
2017-10-02T21:41:10.320Z,100457.48
2017-10-02T21:43:37.476Z,100451.00
2017-10-02T21:46:04.760Z,100449.69
2017-10-02T21:48:31.924Z,100445.41
2017-10-02T21:50:59.069Z,100444.92
2017-10-02T21:53:26.209Z,100456.28
2017-10-02T21:55:53.371Z,100448.02
2017-10-02T21:58:20.517Z,100446.30
2017-10-02T22:00:47.676Z,100439.75
2017-10-02T22:03:14.813Z,100437.67
2017-10-02T22:05:41.954Z,100432.91
2017-10-02T22:08:09.102Z,100430.77
2017-10-02T22:10:36.259Z,100440.83
2017-10-02T22:13:03.407Z,100431.76
2017-10-02T22:15:30.553Z,100437.82
2017-10-02T22:17:57.734Z,100441.75
2017-10-02T22:20:24.890Z,100433.48
2017-10-02T22:22:52.038Z,100437.41
2017-10-02T22:25:19.181Z,100433.48
2017-10-02T22:27:46.324Z,100433.13
2017-10-02T22:30:13.469Z,100434.91
2017-10-02T22:32:40.610Z,100431.45
2017-10-02T22:35:07.750Z,100438.00
2017-10-02T22:37:34.909Z,100439.30
2017-10-02T22:40:02.067Z,100448.94
2017-10-02T22:42:29.206Z,100456.37
2017-10-02T22:44:56.366Z,100464.22
2017-10-02T22:47:23.513Z,100462.08
2017-10-02T22:49:50.809Z,100460.35
2017-10-02T22:52:17.967Z,100454.70
2017-10-02T22:54:45.110Z,100452.98
2017-10-02T22:57:12.262Z,100451.67
2017-10-02T22:59:39.424Z,100451.20
2017-10-02T23:02:06.584Z,100449.05
2017-10-02T23:04:33.748Z,100443.87
2017-10-02T23:07:00.894Z,100434.72
2017-10-02T23:09:28.037Z,100440.44
2017-10-02T23:11:55.176Z,100440.84
2017-10-02T23:14:22.318Z,100453.92
2017-10-02T23:16:49.474Z,100448.28
2017-10-02T23:19:16.632Z,100460.05
2017-10-02T23:21:44.822Z,100458.33
2017-10-02T23:24:12.020Z,100449.17
2017-10-02T23:26:39.161Z,100441.80
2017-10-02T23:29:06.320Z,100440.97
2017-10-02T23:31:33.477Z,100444.00
2017-10-02T23:34:00.618Z,100434.84
2017-10-02T23:36:27.780Z,100430.98
2017-10-02T23:38:55.717Z,100433.17
2017-10-02T23:41:22.858Z,100428.30
2017-10-02T23:43:50.526Z,100431.45
2017-10-02T23:46:17.674Z,100430.56
2017-10-02T23:48:44.814Z,100429.31
2017-10-02T23:51:11.977Z,100433.66
2017-10-02T23:53:39.139Z,100434.91
2017-10-02T23:56:06.993Z,100434.06
2017-10-02T23:58:34.181Z,100429.73
